Fairmont, MN (56075)

9:05 AM CDT on July 23, 2016 (GMT -0500)
FudgeHome | | Change Station

Elev 1178 ft 43.67 °N, 94.47 °W | Updated 6 minutes ago

Scattered Clouds
Scattered Clouds
77.2 °F
Feels Like 78 °F
N
3.7
Wind Variable Wind from NE

Today
High -- | Low -- °F
--% Chance of Precip.
Yesterday
High -- | Low -- °F
Precip. -- in
Pressure 29.86 in
Visibility 10.0 miles
Clouds Few 3500 ft
Scattered Clouds 9500 ft
Scattered Clouds 12000 ft
Heat Index 78 °F
Dew Point 77 °F
Humidity 99%
Rainfall 0.07 in
Snow Depth Not available.
5:57 AM 8:50 PM
Waning Gibbous, 85% visible
METAR KFRM 231355Z AUTO 18012G17KT 10SM FEW035 SCT095 SCT120 25/23 A2986 RMK AO1 LTG DSNT ALQDS TSE1259
Pressure 29.86 in
Visibility 10.0 miles
Clouds Few 3500 ft
Scattered Clouds 9500 ft
Scattered Clouds 12000 ft
Heat Index 78 °F
Dew Point 77 °F
Humidity 99%
Rainfall 0.07 in
Snow Depth Not available.
5:57 AM 8:50 PM
Waning Gibbous, 85% visible
METAR KFRM 231355Z AUTO 18012G17KT 10SM FEW035 SCT095 SCT120 25/23 A2986 RMK AO1 LTG DSNT ALQDS TSE1259

10-Day Weather Forecast

Almanac

Astronomy

Jul. 23, 2016 Rise Set
Actual Time
Civil Twilight
Nautical Twilight
Astronomical Twilight
Moon
Length of Visible Light
Length of Day
Tomorrow will be .
, % of the Moon is Illuminated

Today's Extremes

State Highs State Lows

Community

WunderPhotos

Upload Photos

1,926,821 photos uploaded!

WunderBlog® & News

Nearby

Air Quality

  Air Quality AQ Index Pollutant
Not available.

Snow Depth

Station Depth Elevation

Earthquake Activity

City Distance Mag. Time & Date
Minimum magnitude displayed is 2.5.

Coastal Water Temperatures

Place Temperature

Stations

Nearby Weather Stations

Station Location Temp. Windchill Dew Point Humidity Wind Precip. Elev Updated Type
                   

Watches & Warnings

There are currently no watches in effect.